Condor Rapide — C6YK8 — position and weather

sailwx.info

Track history (hours):
 
Tides and Currents Weather Stations Pressure Air Temp Water Temp Dewpoint Dewpoint Depression Visibility Wind Speed Wind Dir Waves Ship Positions

Condor Rapide

Last reported at 2017-Sep-24 10:07 UTC. Time now 2017-Sep-24 17:34 UTC.
Position N 48°42' W 002°02'.

Length 86 m; draft 3.7 m.

Type: High speed craft. MMSI: 311036800.

Date/timePositionNaut miles runAvg speedWind from/ knotsBaromVisibWave heightAir tempDewpointWater temp
2017-Sep-24 10:07N 48°42' W 002°02'3 3.2
2017-Sep-24 09:03N 48°38' W 002°02'0 0.1
2017-Sep-24 07:51N 48°39' W 002°02'0 0.0
2017-Sep-24 07:15N 48°39' W 002°02'0 0.0
2017-Sep-24 06:09N 48°39' W 002°02'0 0.0
2017-Sep-24 05:57N 48°39' W 002°02'0 0.0
2017-Sep-24 05:27N 48°39' W 002°02'0 0.0
2017-Sep-24 05:00N 48°39' W 002°02'0 0.0
2017-Sep-24 04:30N 48°39' W 002°02'0 0.0
2017-Sep-24 03:57N 48°39' W 002°02'0 0.0
2017-Sep-24 03:30N 48°39' W 002°02'0 0.0
2017-Sep-24 02:57N 48°39' W 002°02'0 0.0
2017-Sep-24 02:15N 48°39' W 002°02'0 0.0
2017-Sep-24 01:57N 48°39' W 002°02'0 0.0
2017-Sep-24 01:27N 48°39' W 002°02'  
2017-Sep-21 06:20N 48°48' W 002°02'920.4
2017-Sep-21 05:53N 48°39' W 002°02'0 0.1
2017-Sep-21 03:03N 48°38' W 002°02'0 0.0
2017-Sep-21 02:39N 48°38' W 002°02'0 0.0
2017-Sep-21 02:08N 48°38' W 002°02'0 0.0
2017-Sep-21 01:51N 48°38' W 002°02'0 0.0
2017-Sep-21 01:27N 48°38' W 002°02'0 0.0
2017-Sep-21 00:56N 48°38' W 002°02'0 0.0
2017-Sep-20 22:44N 48°38' W 002°02'0 0.0
2017-Sep-20 20:30N 48°38' W 002°02'0 0.3
2017-Sep-20 19:59N 48°38' W 002°02'2427.3
2017-Sep-20 19:07N 49°02' W 002°02'6 3.1
2017-Sep-20 17:08N 48°56' W 002°01'18 5.4
2017-Sep-20 13:53N 48°38' W 002°02'0 0.0
2017-Sep-20 13:05N 48°38' W 002°02'0 0.0
2017-Sep-20 12:53N 48°38' W 002°02'0 0.0
2017-Sep-20 12:26N 48°38' W 002°02'0 0.0
2017-Sep-20 11:56N 48°38' W 002°02'0 0.0
2017-Sep-20 10:53N 48°38' W 002°02'0 0.0
2017-Sep-20 10:14N 48°38' W 002°02'0 0.0
2017-Sep-20 09:53N 48°38' W 002°02'0 0.0
2017-Sep-20 09:29N 48°38' W 002°02'713.3
2017-Sep-20 08:59N 48°45' W 002°05'1930.3
2017-Sep-20 08:22N 49°03' W 002°01'16 7.8
2017-Sep-20 06:16N 48°47' W 002°02'727.0
2017-Sep-20 06:00N 48°40' W 002°02'1 1.8
2017-Sep-20 05:15N 48°38' W 002°02'0 0.0
2017-Sep-20 04:21N 48°38' W 002°02'0 0.0
2017-Sep-20 03:42N 48°38' W 002°02'  
Track history (hours):
 
Tides and Currents Weather Stations Pressure Air Temp Water Temp Dewpoint Dewpoint Depression Visibility Wind Speed Wind Dir Waves Ship Positions

Condor Rapide

Last reported at 2017-Sep-24 10:07 UTC. Time now 2017-Sep-24 17:34 UTC.
Position N 48°42' W 002°02'.

Length 86 m; draft 3.7 m.

Type: High speed craft. MMSI: 311036800.

Date/timePositionNaut miles runAvg speedWind from/ knotsBaromVisibWave heightAir tempDewpointWater temp
2017-Sep-24 10:07N 48°42' W 002°02'3 3.2
2017-Sep-24 09:03N 48°38' W 002°02'0 0.1
2017-Sep-24 07:51N 48°39' W 002°02'0 0.0
2017-Sep-24 07:15N 48°39' W 002°02'0 0.0
2017-Sep-24 06:09N 48°39' W 002°02'0 0.0
2017-Sep-24 05:57N 48°39' W 002°02'0 0.0
2017-Sep-24 05:27N 48°39' W 002°02'0 0.0
2017-Sep-24 05:00N 48°39' W 002°02'0 0.0
2017-Sep-24 04:30N 48°39' W 002°02'0 0.0
2017-Sep-24 03:57N 48°39' W 002°02'0 0.0
2017-Sep-24 03:30N 48°39' W 002°02'0 0.0
2017-Sep-24 02:57N 48°39' W 002°02'0 0.0
2017-Sep-24 02:15N 48°39' W 002°02'0 0.0
2017-Sep-24 01:57N 48°39' W 002°02'0 0.0
2017-Sep-24 01:27N 48°39' W 002°02'  
2017-Sep-21 06:20N 48°48' W 002°02'920.4
2017-Sep-21 05:53N 48°39' W 002°02'0 0.1
2017-Sep-21 03:03N 48°38' W 002°02'0 0.0
2017-Sep-21 02:39N 48°38' W 002°02'0 0.0
2017-Sep-21 02:08N 48°38' W 002°02'0 0.0
2017-Sep-21 01:51N 48°38' W 002°02'0 0.0
2017-Sep-21 01:27N 48°38' W 002°02'0 0.0
2017-Sep-21 00:56N 48°38' W 002°02'0 0.0
2017-Sep-20 22:44N 48°38' W 002°02'0 0.0
2017-Sep-20 20:30N 48°38' W 002°02'0 0.3
2017-Sep-20 19:59N 48°38' W 002°02'2427.3
2017-Sep-20 19:07N 49°02' W 002°02'6 3.1
2017-Sep-20 17:08N 48°56' W 002°01'18 5.4
2017-Sep-20 13:53N 48°38' W 002°02'0 0.0
2017-Sep-20 13:05N 48°38' W 002°02'0 0.0
2017-Sep-20 12:53N 48°38' W 002°02'0 0.0
2017-Sep-20 12:26N 48°38' W 002°02'0 0.0
2017-Sep-20 11:56N 48°38' W 002°02'0 0.0
2017-Sep-20 10:53N 48°38' W 002°02'0 0.0
2017-Sep-20 10:14N 48°38' W 002°02'0 0.0
2017-Sep-20 09:53N 48°38' W 002°02'0 0.0
2017-Sep-20 09:29N 48°38' W 002°02'713.3
2017-Sep-20 08:59N 48°45' W 002°05'1930.3
2017-Sep-20 08:22N 49°03' W 002°01'16 7.8
2017-Sep-20 06:16N 48°47' W 002°02'727.0
2017-Sep-20 06:00N 48°40' W 002°02'1 1.8
2017-Sep-20 05:15N 48°38' W 002°02'0 0.0
2017-Sep-20 04:21N 48°38' W 002°02'0 0.0
2017-Sep-20 03:42N 48°38' W 002°02'  

Dump ship's entire track history